Time;durP1;ratioP1;P1;durP2;ratioP2;P2;SDS_P1;SDS_P2;PMS_P1;PMS_P2;Temp;Humidity;BMP_temperature;BMP_pressure;BME280_temperature;BME280_humidity;BME280_pressure;Samples;Min_cycle;Max_cycle;Signal;HPM_P1;HPM_P2
2022/08/01 00:00:36;;;;;;;;;;;;;;;;;;21176320;28;19924;-66
2022/08/01 00:10:38;;;;;;;;;;;;;;;;;;21175771;28;19923;-64
2022/08/01 00:20:50;;;;;;;;;;;;;;;;;;21176761;28;19923;-58
2022/08/01 00:30:52;;;;;;;;;;;;;;;;;;21173584;28;19927;-56
2022/08/01 00:40:53;;;;;;;;;;;;;;;;;;21172184;28;19946;-63
2022/08/01 00:51:01;;;;;;;;;;;;;;;;;;21171479;28;19953;-57
2022/08/01 01:01:03;;;;;;;;;;;;;;;;;;21177287;28;19970;-57
2022/08/01 01:11:11;;;;;;;;;;;;;;;;;;21169532;28;19924;-57
2022/08/01 01:21:14;;;;;;;;;;;;;;;;;;21168726;28;19932;-53
2022/08/01 01:31:17;;;;;;;;;;;;;;;;;;21169093;28;19961;-55
2022/08/01 01:41:21;;;;;;;;;;;;;;;;;;21167625;28;19924;-57
2022/08/01 01:51:25;;;;;;;;;;;;;;;;;;21167647;28;19928;-60
2022/08/01 02:01:28;;;;;;;;;;;;;;;;;;21165352;28;19950;-60
2022/08/01 02:11:30;;;;;;;;;;;;;;;;;;21165123;28;19928;-55
2022/08/01 02:21:32;;;;;;;;;;;;;;;;;;21164667;28;19978;-57
2022/08/01 02:31:35;;;;;;;;;;;;;;;;;;21161576;28;19970;-57
2022/08/01 02:41:38;;;;;;;;;;;;;;;;;;21165376;28;19930;-55
2022/08/01 02:51:41;;;;;;;;;;;;;;;;;;21163655;28;19924;-58
2022/08/01 03:01:44;;;;;;;;;;;;;;;;;;21162637;28;19928;-60
2022/08/01 03:11:47;;;;;;;;;;;;;;;;;;21209383;28;19928;-55
2022/08/01 03:21:49;;;;;;;;;;;;;;;;;;21248942;28;20006;-56
2022/08/01 03:31:52;;;;;;;;;;;;;;;;;;21248750;28;20367;-58
2022/08/01 03:41:54;;;;;;;;;;;;;;;;;;21258921;27;19928;-57
2022/08/01 03:51:56;;;;;;;;;;;;;;;;;;21261599;27;19968;-55
2022/08/01 04:01:59;;;;;;;;;;;;;;;;;;21276389;27;19923;-55
2022/08/01 04:12:01;;;;;;;;;;;;;;;;;;21259772;27;19930;-58
2022/08/01 04:22:03;;;;;;;;;;;;;;;;;;21258961;27;19946;-60
2022/08/01 04:32:05;;;;;;;;;;;;;;;;;;21258098;27;19927;-57
2022/08/01 04:42:07;;;;;;;;;;;;;;;;;;21260330;27;19992;-61
2022/08/01 04:52:13;;;;;;;;;;;;;;;;;;21271648;27;19924;-57
2022/08/01 05:02:18;;;;;;;;;;;;;;;;;;21255817;27;19927;-62
2022/08/01 05:12:20;;;;;;;;;;;;;;;;;;21255666;27;20232;-57
2022/08/01 05:22:24;;;;;;;;;;;;;;;;;;21254887;27;19931;-59
2022/08/01 05:32:26;;;;;;;;;;;;;;;;;;21252979;27;20060;-59
2022/08/01 05:42:29;;;;;;;;;;;;;;;;;;21252341;27;19962;-56
2022/08/01 05:52:32;;;;;;;;;;;;;;;;;;21251422;27;19924;-54
2022/08/01 06:02:33;;;;;;;;;;;;;;;;;;21251473;27;19923;-57
2022/08/01 06:12:35;;;;;;;;;;;;;;;;;;21250443;27;20435;-57
2022/08/01 06:22:38;;;;;;;;;;;;;;;;;;21250316;27;20010;-56
2022/08/01 06:32:40;;;;;;;;;;;;;;;;;;21250876;27;19946;-58
2022/08/01 06:42:42;;;;;;;;;;;;;;;;;;21248618;27;19930;-55
2022/08/01 06:52:43;;;;;;;;;;;;;;;;;;21249191;27;19930;-59
2022/08/01 07:02:46;;;;;;;;;;;;;;;;;;21248748;28;19923;-58
2022/08/01 07:12:48;;;;;;;;;;;;;;;;;;21253598;27;20375;-57
2022/08/01 07:22:50;;;;;;;;;;;;;;;;;;21263520;27;19924;-61
2022/08/01 07:32:52;;;;;;;;;;;;;;;;;;21263667;27;19969;-56
2022/08/01 07:42:54;;;;;;;;;;;;;;;;;;21262479;27;19976;-56
2022/08/01 07:52:56;;;;;;;;;;;;;;;;;;21261643;27;20023;-56
2022/08/01 08:02:59;;;;;;;;;;;;;;;;;;21276008;27;19931;-55
2022/08/01 08:13:03;;;;;;;;;;;;;;;;;;21260138;27;19923;-64
2022/08/01 08:24:19;;;;;;;;;;;;;;;;;;21273814;27;19949;-63
2022/08/01 08:33:29;;;;;;;;;;;;;;;;;;21258042;27;19930;-63
2022/08/01 08:43:31;;;;;;;;;;;;;;;;;;21257411;27;19984;-58
2022/08/01 08:53:33;;;;;;;;;;;;;;;;;;21257190;27;19924;-58
2022/08/01 09:03:36;;;;;;;;;;;;;;;;;;21255625;27;19924;-57
2022/08/01 09:13:39;;;;;;;;;;;;;;;;;;21253592;27;20034;-55
2022/08/01 09:23:42;;;;;;;;;;;;;;;;;;21254160;27;20302;-58
2022/08/01 09:33:44;;;;;;;;;;;;;;;;;;21252420;27;19923;-62
2022/08/01 09:43:47;;;;;;;;;;;;;;;;;;21251990;27;20022;-58
2022/08/01 09:53:50;;;;;;;;;;;;;;;;;;21258364;27;19930;-60
2022/08/01 10:03:53;;;;;;;;;;;;;;;;;;21253775;27;19923;-54
2022/08/01 10:13:57;;;;;;;;;;;;;;;;;;21252827;27;19923;-54
2022/08/01 10:24:00;;;;;;;;;;;;;;;;;;21248873;27;19923;-55
2022/08/01 10:34:02;;;;;;;;;;;;;;;;;;21248222;27;20354;-57
2022/08/01 10:44:06;;;;;;;;;;;;;;;;;;21246778;27;21329;-63
2022/08/01 10:54:08;;;;;;;;;;;;;;;;;;21246955;27;19931;-56
2022/08/01 11:04:11;;;;;;;;;;;;;;;;;;21247075;28;20300;-55
2022/08/01 11:14:13;;;;;;;;;;;;;;;;;;21246721;28;19927;-55
2022/08/01 11:24:16;;;;;;;;;;;;;;;;;;21248607;28;19972;-66
2022/08/01 11:34:18;;;;;;;;;;;;;;;;;;21248109;28;19923;-65
2022/08/01 11:44:22;;;;;;;;;;;;;;;;;;21246239;28;19924;-57
2022/08/01 11:54:24;;;;;;;;;;;;;;;;;;21261133;27;19924;-59
2022/08/01 12:04:26;;;;;;;;;;;;;;;;;;21259964;27;20410;-67
2022/08/01 12:14:28;;;;;;;;;;;;;;;;;;21260297;27;19923;-60
2022/08/01 12:24:30;;;;;;;;;;;;;;;;;;21259956;27;19923;-66
2022/08/01 12:34:34;;;;;;;;;;;;;;;;;;21258493;27;19924;-59
2022/08/01 12:44:36;;;;;;;;;;;;;;;;;;21257426;27;19966;-65
2022/08/01 12:54:37;;;;;;;;;;;;;;;;;;21256609;27;19931;-64
2022/08/01 13:04:39;;;;;;;;;;;;;;;;;;21256770;27;20015;-66
2022/08/01 13:14:41;;;;;;;;;;;;;;;;;;21256026;27;19977;-64
2022/08/01 13:24:44;;;;;;;;;;;;;;;;;;21254847;27;19927;-62
2022/08/01 13:34:47;;;;;;;;;;;;;;;;;;21253151;27;19947;-66
2022/08/01 13:44:50;;;;;;;;;;;;;;;;;;21252754;27;19931;-62
2022/08/01 13:54:52;;;;;;;;;;;;;;;;;;21254906;27;19923;-57
2022/08/01 14:04:55;;;;;;;;;;;;;;;;;;21251370;27;20268;-64
2022/08/01 14:14:58;;;;;;;;;;;;;;;;;;21249811;27;19923;-66
2022/08/01 14:25:00;;;;;;;;;;;;;;;;;;21251794;27;19930;-55
2022/08/01 14:35:02;;;;;;;;;;;;;;;;;;21249377;27;19931;-66
2022/08/01 14:45:08;;;;;;;;;;;;;;;;;;21248914;27;19924;-65
2022/08/01 14:55:10;;;;;;;;;;;;;;;;;;21247163;27;19980;-65
2022/08/01 15:05:11;;;;;;;;;;;;;;;;;;21248095;28;20712;-67
2022/08/01 15:15:13;;;;;;;;;;;;;;;;;;21246582;28;19923;-65
2022/08/01 15:25:15;;;;;;;;;;;;;;;;;;21246299;28;19923;-66
2022/08/01 15:35:17;;;;;;;;;;;;;;;;;;21254097;27;20390;-66
2022/08/01 15:45:20;;;;;;;;;;;;;;;;;;21262232;27;19923;-67
2022/08/01 15:55:22;;;;;;;;;;;;;;;;;;21261676;27;19930;-65
2022/08/01 16:05:24;;;;;;;;;;;;;;;;;;21260500;27;19924;-65
2022/08/01 16:15:26;;;;;;;;;;;;;;;;;;21261428;27;19975;-62
2022/08/01 16:25:28;;;;;;;;;;;;;;;;;;21258538;27;19923;-65
2022/08/01 16:35:30;;;;;;;;;;;;;;;;;;21258427;27;20015;-67
2022/08/01 16:45:31;;;;;;;;;;;;;;;;;;21256686;27;20255;-65
2022/08/01 16:55:34;;;;;;;;;;;;;;;;;;21256488;27;19924;-61
2022/08/01 17:05:36;;;;;;;;;;;;;;;;;;21256569;27;19979;-63
2022/08/01 17:15:39;;;;;;;;;;;;;;;;;;21253990;27;19923;-64
2022/08/01 17:25:40;;;;;;;;;;;;;;;;;;21253501;27;20379;-63
2022/08/01 17:35:42;;;;;;;;;;;;;;;;;;21255798;27;19923;-69
2022/08/01 17:45:44;;;;;;;;;;;;;;;;;;21253057;27;20295;-63
2022/08/01 17:55:46;;;;;;;;;;;;;;;;;;21250805;27;19995;-57
2022/08/01 18:05:48;;;;;;;;;;;;;;;;;;21250894;27;20390;-57
2022/08/01 18:16:09;;;;;;;;;;;;;;;;;;21249433;27;19919;-58
2022/08/01 18:26:12;;;;;;;;;;;;;;;;;;21250238;27;19924;-62
2022/08/01 18:36:13;;;;;;;;;;;;;;;;;;21252167;27;19930;-66
2022/08/01 18:46:15;;;;;;;;;;;;;;;;;;21249418;27;19930;-65
2022/08/01 18:56:17;;;;;;;;;;;;;;;;;;21247461;27;19969;-63
2022/08/01 19:06:19;;;;;;;;;;;;;;;;;;21251418;27;19924;-65
2022/08/01 19:16:21;;;;;;;;;;;;;;;;;;21265357;27;19923;-66
2022/08/01 19:26:24;;;;;;;;;;;;;;;;;;21265898;27;19923;-67
2022/08/01 19:36:27;;;;;;;;;;;;;;;;;;21262920;27;19927;-58
2022/08/01 19:46:28;;;;;;;;;;;;;;;;;;21263171;27;19924;-67
2022/08/01 19:56:32;;;;;;;;;;;;;;;;;;21261112;27;19924;-56
2022/08/01 20:06:34;;;;;;;;;;;;;;;;;;21262883;27;19923;-55
2022/08/01 20:16:37;;;;;;;;;;;;;;;;;;21264562;27;20359;-61
2022/08/01 20:26:38;;;;;;;;;;;;;;;;;;21259365;27;20410;-65
2022/08/01 20:36:40;;;;;;;;;;;;;;;;;;21259111;27;19923;-66
2022/08/01 20:46:42;;;;;;;;;;;;;;;;;;21258698;27;19923;-63
2022/08/01 20:56:44;;;;;;;;;;;;;;;;;;21257788;27;19924;-64
2022/08/01 21:06:47;;;;;;;;;;;;;;;;;;21256213;27;19949;-64
2022/08/01 21:16:49;;;;;;;;;;;;;;;;;;21260391;27;19927;-64
2022/08/01 21:26:51;;;;;;;;;;;;;;;;;;21258866;27;19923;-66
2022/08/01 21:36:53;;;;;;;;;;;;;;;;;;21262590;27;19923;-65
2022/08/01 21:46:55;;;;;;;;;;;;;;;;;;21257465;27;19923;-54
2022/08/01 21:56:57;;;;;;;;;;;;;;;;;;21251827;27;19949;-54
2022/08/01 22:06:58;;;;;;;;;;;;;;;;;;21252681;27;19929;-64
2022/08/01 22:17:00;;;;;;;;;;;;;;;;;;21251700;27;20030;-67
2022/08/01 22:27:03;;;;;;;;;;;;;;;;;;21251022;27;19969;-64
2022/08/01 22:37:05;;;;;;;;;;;;;;;;;;21249992;27;19931;-59
2022/08/01 22:47:07;;;;;;;;;;;;;;;;;;21248564;27;19962;-65
2022/08/01 22:57:09;;;;;;;;;;;;;;;;;;21250734;27;19924;-64
2022/08/01 23:07:11;;;;;;;;;;;;;;;;;;21249192;28;19923;-60
2022/08/01 23:17:12;;;;;;;;;;;;;;;;;;21247357;28;20018;-62
2022/08/01 23:27:26;;;;;;;;;;;;;;;;;;21247457;28;19923;-62
2022/08/01 23:37:28;;;;;;;;;;;;;;;;;;21247181;28;20282;-63
2022/08/01 23:47:30;;;;;;;;;;;;;;;;;;21247266;28;19923;-63
2022/08/01 23:57:31;;;;;;;;;;;;;;;;;;21271002;27;19976;-64
